Humphrey, Nebraska
Current Conditions -  °F | °C
As of 1:15 AM on Sunday 23 Nov 2014 (Local Time) from KOLU Reporting Station
Overcast Overcast  
Wind Chill: 54°   Ceiling: 1800
Heat Index: 54°   Visibility: 10mi
Dew Point: 48°   Wind: 7mph
Humidity: 82%   Direction: 220°SW
Pressure: 29.51"   Gusts: NA
Location:  41.69°N, 97.48°W
Report Text: KOLU 230715Z AUTO 22006KT 10SM OVC018 12/09 A2951 RMK AO1
Loading
Personal Weather Stations






























Interactive Weather Map New forecast layout! Learn more

10-Day Weather Forecast

Advertisements
Track Severe Weather on mobile